Time;durP1;ratioP1;P1;durP2;ratioP2;P2;SDS_P1;SDS_P2;PMS_P1;PMS_P2;Temp;Humidity;BMP_temperature;BMP_pressure;BME280_temperature;BME280_humidity;BME280_pressure;Samples;Min_cycle;Max_cycle;Signal;HPM_P1;HPM_P2
2022/12/24 00:01:45;;;;;;;;;;;;;;;4.64;68.28;99587.06;5040769;28;19921;-56
2022/12/24 00:04:10;;;;;;;;;;;;;;;4.63;68.14;99587.97;5038989;28;19929;-58
2022/12/24 00:06:36;;;;;;;;;;;;;;;4.63;68.00;99594.91;5031843;28;19970;-55
2022/12/24 00:09:01;;;;;;;;;;;;;;;4.59;67.85;99594.06;5049643;28;20019;-56
2022/12/24 00:11:26;;;;;;;;;;;;;;;4.55;67.29;99589.78;5047880;28;19928;-55
2022/12/24 00:13:52;;;;;;;;;;;;;;;4.60;67.39;99589.72;5034094;28;19951;-56
2022/12/24 00:16:17;;;;;;;;;;;;;;;4.53;66.51;99591.50;5049798;28;19970;-55
2022/12/24 00:18:42;;;;;;;;;;;;;;;4.55;66.46;99587.16;5048604;28;20301;-55
2022/12/24 00:21:07;;;;;;;;;;;;;;;4.47;66.42;99585.50;5046735;28;19932;-54
2022/12/24 00:23:33;;;;;;;;;;;;;;;4.45;66.76;99578.56;5042905;28;20555;-56
2022/12/24 00:25:58;;;;;;;;;;;;;;;4.45;67.13;99585.53;5045116;28;19925;-55
2022/12/24 00:28:24;;;;;;;;;;;;;;;4.37;66.46;99587.34;5039409;28;19974;-56
2022/12/24 00:30:49;;;;;;;;;;;;;;;4.25;66.03;99590.03;5039347;28;20019;-56
2022/12/24 00:33:14;;;;;;;;;;;;;;;4.27;66.33;99590.88;5044673;28;19971;-58
2022/12/24 00:35:40;;;;;;;;;;;;;;;4.23;66.11;99595.28;5044930;28;20346;-56
2022/12/24 00:38:06;;;;;;;;;;;;;;;4.17;66.43;99588.38;5036491;28;19922;-55
2022/12/24 00:40:31;;;;;;;;;;;;;;;4.15;66.57;99592.72;5037964;28;19921;-55
2022/12/24 00:42:57;;;;;;;;;;;;;;;4.15;66.38;99591.88;5039484;28;20008;-55
2022/12/24 00:45:22;;;;;;;;;;;;;;;4.11;66.41;99591.03;5035039;28;19944;-54
2022/12/24 00:47:48;;;;;;;;;;;;;;;3.96;66.64;99593.75;5041178;28;20295;-55
2022/12/24 00:50:13;;;;;;;;;;;;;;;3.83;67.40;99605.06;5039034;28;19936;-55
2022/12/24 00:52:39;;;;;;;;;;;;;;;3.81;67.71;99597.31;5045499;28;20059;-55
2022/12/24 00:55:04;;;;;;;;;;;;;;;3.85;67.72;99603.34;5036927;28;19926;-56
2022/12/24 00:57:29;;;;;;;;;;;;;;;3.85;67.29;99605.94;5039890;28;19955;-57
2022/12/24 00:59:55;;;;;;;;;;;;;;;3.86;67.10;99603.31;5047521;28;20273;-56
2022/12/24 01:02:20;;;;;;;;;;;;;;;3.84;66.90;99594.69;5034201;28;19940;-55
2022/12/24 01:07:29;;;;;;;;;;;;;;;3.74;66.60;99593.00;5040918;28;20281;-55
2022/12/24 01:09:55;;;;;;;;;;;;;;;3.63;65.46;99598.31;5038202;28;19925;-53
2022/12/24 01:12:20;;;;;;;;;;;;;;;3.45;64.88;99594.06;5045209;28;20376;-55
2022/12/24 01:14:45;;;;;;;;;;;;;;;3.51;66.02;99598.38;5051520;28;19921;-54
2022/12/24 01:17:11;;;;;;;;;;;;;;;3.45;66.43;99601.00;5053970;28;19931;-54
2022/12/24 01:19:36;;;;;;;;;;;;;;;3.40;66.79;99600.16;5048659;28;19933;-55
2022/12/24 01:22:01;;;;;;;;;;;;;;;3.35;67.19;99595.00;5051570;28;19920;-57
2022/12/24 01:24:27;;;;;;;;;;;;;;;3.33;67.21;99595.84;5052238;28;19925;-58
2022/12/24 01:26:52;;;;;;;;;;;;;;;3.26;67.20;99595.00;5038749;28;20381;-55
2022/12/24 01:29:17;;;;;;;;;;;;;;;3.21;67.56;99594.19;5047537;28;19947;-55
2022/12/24 01:31:43;;;;;;;;;;;;;;;3.19;67.30;99596.78;5049806;28;20011;-55
2022/12/24 01:34:08;;;;;;;;;;;;;;;3.22;67.09;99596.75;5039558;28;19953;-53
2022/12/24 01:36:34;;;;;;;;;;;;;;;3.25;66.98;99605.41;5039765;28;20287;-55
2022/12/24 01:39:00;;;;;;;;;;;;;;;3.22;67.14;99609.75;5044949;28;19925;-55
2022/12/24 01:44:38;;;;;;;;;;;;;;;2.98;65.90;99609.81;5036045;28;19979;-53
2022/12/24 01:47:14;;;;;;;;;;;;;;;2.95;66.53;99620.22;5032594;28;19921;-55
2022/12/24 01:49:52;;;;;;;;;;;;;;;2.92;66.46;99628.03;5039689;28;19925;-53
2022/12/24 01:52:27;;;;;;;;;;;;;;;2.99;66.57;99623.66;5041993;28;19921;-54
2022/12/24 01:54:56;;;;;;;;;;;;;;;2.99;67.21;99629.72;5046413;28;19921;-55
2022/12/24 01:57:24;;;;;;;;;;;;;;;2.95;66.87;99633.19;5047853;28;20035;-55
2022/12/24 01:59:52;;;;;;;;;;;;;;;2.89;66.06;99635.81;5051338;28;19927;-55
2022/12/24 02:02:18;;;;;;;;;;;;;;;2.88;66.41;99642.75;5057172;28;19921;-51
2022/12/24 02:04:48;;;;;;;;;;;;;;;2.90;66.89;99641.00;5037813;28;19982;-50
2022/12/24 02:07:13;;;;;;;;;;;;;;;2.85;67.00;99647.06;5038337;28;19917;-51
2022/12/24 02:09:39;;;;;;;;;;;;;;;2.83;66.74;99639.31;5039900;28;19929;-53
2022/12/24 02:12:04;;;;;;;;;;;;;;;2.79;66.06;99649.66;5051577;28;19921;-51
2022/12/24 02:14:31;;;;;;;;;;;;;;;2.76;65.88;99645.38;5049637;28;19925;-52
2022/12/24 02:17:19;;;;;;;;;;;;;;;2.65;65.33;99660.06;5036491;28;19948;-54
2022/12/24 02:19:45;;;;;;;;;;;;;;;2.57;66.01;99660.06;5045635;28;19956;-52
2022/12/24 02:22:19;;;;;;;;;;;;;;;2.67;66.35;99653.13;5046099;28;19960;-61
2022/12/24 02:24:56;;;;;;;;;;;;;;;2.66;66.49;99664.38;5037547;28;20012;-54
2022/12/24 02:27:21;;;;;;;;;;;;;;;2.69;66.70;99662.66;5046989;28;20015;-54
2022/12/24 02:29:46;;;;;;;;;;;;;;;2.64;66.06;99674.78;5036683;28;20007;-55
2022/12/24 02:32:21;;;;;;;;;;;;;;;2.60;66.60;99662.69;5052069;28;19933;-53
2022/12/24 02:34:51;;;;;;;;;;;;;;;2.56;66.68;99663.53;5039939;28;19921;-54
2022/12/24 02:37:17;;;;;;;;;;;;;;;2.63;66.87;99669.56;5051958;28;19923;-53
2022/12/24 02:39:51;;;;;;;;;;;;;;;2.67;66.92;99667.00;5037445;28;20292;-53
2022/12/24 02:42:21;;;;;;;;;;;;;;;2.70;66.33;99671.28;5040738;28;19920;-53
2022/12/24 02:45:07;;;;;;;;;;;;;;;2.60;65.79;99672.19;5056402;28;19921;-53
2022/12/24 02:47:33;;;;;;;;;;;;;;;2.67;66.81;99674.78;5036709;28;19974;-52
2022/12/24 02:50:00;;;;;;;;;;;;;;;2.68;68.07;99676.50;5036842;28;19925;-52
2022/12/24 02:52:35;;;;;;;;;;;;;;;2.70;68.75;99679.94;5048213;28;20390;-54
2022/12/24 02:55:06;;;;;;;;;;;;;;;2.77;69.00;99674.75;5043930;28;19928;-54
2022/12/24 02:57:58;;;;;;;;;;;;;;;2.77;68.86;99679.94;5038627;28;19921;-55
2022/12/24 03:00:24;;;;;;;;;;;;;;;2.81;68.78;99681.69;5028454;28;19920;-52
2022/12/24 03:03:02;;;;;;;;;;;;;;;2.87;68.16;99686.84;5053107;28;20012;-55
2022/12/24 03:05:33;;;;;;;;;;;;;;;2.92;67.59;99678.19;5037023;28;19921;-54
2022/12/24 03:08:08;;;;;;;;;;;;;;;2.95;67.22;99685.97;5052831;28;20289;-54
2022/12/24 03:10:37;;;;;;;;;;;;;;;2.92;66.44;99685.97;5045726;28;20012;-56
2022/12/24 03:13:05;;;;;;;;;;;;;;;2.95;66.19;99691.19;5048078;28;19924;-51
2022/12/24 03:15:31;;;;;;;;;;;;;;;2.88;67.03;99691.19;5040903;28;20015;-54
2022/12/24 03:17:58;;;;;;;;;;;;;;;2.84;67.28;99687.72;5036396;28;20039;-54
2022/12/24 03:20:38;;;;;;;;;;;;;;;2.83;67.84;99698.09;5037480;28;19917;-53
2022/12/24 03:23:04;;;;;;;;;;;;;;;2.81;68.38;99687.72;5044084;28;20301;-49
2022/12/24 03:25:31;;;;;;;;;;;;;;;2.81;68.41;99695.50;5043174;28;19917;-54
2022/12/24 03:27:58;;;;;;;;;;;;;;;2.85;68.47;99693.78;5041832;28;19925;-50
2022/12/24 03:30:24;;;;;;;;;;;;;;;2.90;68.53;99692.88;5045527;28;19948;-53
2022/12/24 03:32:50;;;;;;;;;;;;;;;2.93;68.44;99699.81;5038874;28;19929;-53
2022/12/24 03:35:15;;;;;;;;;;;;;;;2.94;68.27;99704.13;5046838;28;19921;-52
2022/12/24 03:37:40;;;;;;;;;;;;;;;2.94;68.32;99709.31;5048507;28;20262;-55
2022/12/24 03:40:06;;;;;;;;;;;;;;;3.02;67.79;99715.38;5046231;28;19924;-55
2022/12/24 03:42:31;;;;;;;;;;;;;;;2.93;68.08;99717.97;5043793;28;19964;-54
2022/12/24 03:44:57;;;;;;;;;;;;;;;2.96;68.28;99720.59;5035400;28;20365;-51
2022/12/24 03:47:22;;;;;;;;;;;;;;;2.99;68.39;99727.47;5043508;28;19925;-53
2022/12/24 03:49:47;;;;;;;;;;;;;;;2.90;67.89;99730.94;5049147;28;19925;-49
2022/12/24 03:52:13;;;;;;;;;;;;;;;2.93;67.89;99728.38;5043435;28;20283;-50
2022/12/24 03:54:38;;;;;;;;;;;;;;;2.90;67.88;99733.56;5048156;28;19925;-51
2022/12/24 03:57:03;;;;;;;;;;;;;;;2.89;68.09;99731.81;5041668;28;19925;-50
2022/12/24 03:59:29;;;;;;;;;;;;;;;2.86;68.23;99742.19;5032590;28;19936;-54
2022/12/24 04:01:54;;;;;;;;;;;;;;;2.84;68.22;99728.38;5031794;28;19932;-50
2022/12/24 04:04:19;;;;;;;;;;;;;;;2.81;67.84;99737.03;5044116;28;19946;-49
2022/12/24 04:06:45;;;;;;;;;;;;;;;2.74;66.97;99739.63;5049350;28;19920;-54
2022/12/24 04:09:10;;;;;;;;;;;;;;;2.70;66.55;99739.59;5040732;28;20279;-53
2022/12/24 04:11:35;;;;;;;;;;;;;;;2.68;67.43;99740.50;5047900;28;20364;-53
2022/12/24 04:14:00;;;;;;;;;;;;;;;2.68;68.25;99743.94;5045081;28;19917;-52
2022/12/24 04:16:26;;;;;;;;;;;;;;;2.58;68.32;99739.59;5038811;28;20025;-54
2022/12/24 04:18:51;;;;;;;;;;;;;;;2.55;68.79;99736.13;5035868;28;19925;-54
2022/12/24 04:21:16;;;;;;;;;;;;;;;2.60;68.61;99737.03;5033332;28;19924;-54
2022/12/24 04:23:42;;;;;;;;;;;;;;;2.58;68.16;99741.34;5047437;28;19924;-53
2022/12/24 04:26:08;;;;;;;;;;;;;;;2.62;67.88;99743.06;5049299;28;20027;-55
2022/12/24 04:28:34;;;;;;;;;;;;;;;2.60;67.99;99740.50;5046134;28;19952;-53
2022/12/24 04:31:05;;;;;;;;;;;;;;;2.57;67.50;99745.66;5038619;28;19955;-53
2022/12/24 04:33:30;;;;;;;;;;;;;;;2.48;66.68;99740.47;5040546;28;19920;-53
2022/12/24 04:35:56;;;;;;;;;;;;;;;2.43;66.33;99737.88;5034335;28;19925;-53
2022/12/24 04:38:21;;;;;;;;;;;;;;;2.40;66.77;99737.88;5048341;28;19927;-53
2022/12/24 04:40:47;;;;;;;;;;;;;;;2.43;68.50;99734.41;5045587;28;20018;-51
2022/12/24 04:43:12;;;;;;;;;;;;;;;2.51;68.61;99740.47;5049980;28;20287;-52
2022/12/24 04:45:37;;;;;;;;;;;;;;;2.51;68.80;99742.19;5033957;28;19931;-53
2022/12/24 04:48:03;;;;;;;;;;;;;;;2.55;68.80;99739.59;5036154;28;20000;-56
2022/12/24 04:50:28;;;;;;;;;;;;;;;2.54;68.87;99745.66;5035755;28;20402;-51
2022/12/24 04:52:53;;;;;;;;;;;;;;;2.56;68.64;99743.09;5035244;28;20364;-54
2022/12/24 04:55:19;;;;;;;;;;;;;;;2.57;68.86;99752.59;5034367;28;19932;-52
2022/12/24 04:57:44;;;;;;;;;;;;;;;2.55;68.64;99751.69;5032579;28;19931;-55
2022/12/24 05:00:10;;;;;;;;;;;;;;;2.47;68.23;99750.00;5046009;28;19929;-52
2022/12/24 05:02:35;;;;;;;;;;;;;;;2.50;68.34;99743.06;5038986;28;19925;-51
2022/12/24 05:05:00;;;;;;;;;;;;;;;2.41;68.14;99747.38;5045446;28;19925;-52
2022/12/24 05:07:26;;;;;;;;;;;;;;;2.44;68.49;99749.13;5041875;28;19948;-52
2022/12/24 05:09:51;;;;;;;;;;;;;;;2.37;68.48;99745.66;5031805;28;19933;-53
2022/12/24 05:12:16;;;;;;;;;;;;;;;2.40;68.92;99745.66;5042595;28;19928;-53
2022/12/24 05:14:42;;;;;;;;;;;;;;;2.39;68.97;99746.50;5047881;28;20339;-54
2022/12/24 05:17:07;;;;;;;;;;;;;;;2.35;68.45;99747.34;5045197;28;19929;-54
2022/12/24 05:19:33;;;;;;;;;;;;;;;2.43;68.94;99755.16;5047170;28;19925;-52
2022/12/24 05:27:26;;;;;;;;;;;;;;;2.39;67.82;99753.41;5046849;28;20020;-53
2022/12/24 05:29:51;;;;;;;;;;;;;;;2.32;66.95;99754.28;5023645;28;20040;-52
2022/12/24 05:32:16;;;;;;;;;;;;;;;2.11;66.84;99763.72;5042271;28;19964;-53
2022/12/24 05:34:42;;;;;;;;;;;;;;;2.14;67.38;99766.34;5033188;28;19929;-50
2022/12/24 05:37:07;;;;;;;;;;;;;;;2.14;67.44;99775.84;5042893;28;20374;-51
2022/12/24 05:39:32;;;;;;;;;;;;;;;2.12;67.44;99774.97;5053028;28;19921;-50
2022/12/24 05:41:57;;;;;;;;;;;;;;;2.02;67.08;99774.06;5053513;28;19974;-50
2022/12/24 05:44:23;;;;;;;;;;;;;;;2.05;66.85;99779.28;5053396;28;19921;-51
2022/12/24 05:46:48;;;;;;;;;;;;;;;2.04;67.72;99782.72;5044989;28;19925;-50
2022/12/24 05:49:13;;;;;;;;;;;;;;;2.01;67.26;99782.72;5054146;28;19978;-52
2022/12/24 05:51:39;;;;;;;;;;;;;;;1.94;67.73;99787.00;5038487;28;20296;-53
2022/12/24 05:54:04;;;;;;;;;;;;;;;2.03;68.07;99783.56;5055037;28;19925;-51
2022/12/24 05:56:30;;;;;;;;;;;;;;;1.98;67.95;99783.56;5051895;28;19924;-51
2022/12/24 05:58:55;;;;;;;;;;;;;;;2.01;68.11;99780.13;5048701;28;20003;-52
2022/12/24 06:01:21;;;;;;;;;;;;;;;2.05;68.30;99781.00;5036861;28;19925;-54
2022/12/24 06:03:48;;;;;;;;;;;;;;;2.07;68.18;99790.50;5048577;28;20291;-54
2022/12/24 06:06:17;;;;;;;;;;;;;;;2.07;68.76;99790.50;5042179;28;19921;-51
2022/12/24 06:08:43;;;;;;;;;;;;;;;2.08;68.77;99796.56;5039466;28;19964;-51
2022/12/24 06:11:10;;;;;;;;;;;;;;;1.96;68.74;99798.25;5054002;28;20014;-51
2022/12/24 06:13:35;;;;;;;;;;;;;;;1.98;69.13;99801.69;5051666;28;20553;-52
2022/12/24 06:16:02;;;;;;;;;;;;;;;1.92;68.88;99806.88;5054171;28;20618;-54
2022/12/24 06:18:28;;;;;;;;;;;;;;;2.03;69.23;99809.47;5055353;28;19921;-53
2022/12/24 06:20:54;;;;;;;;;;;;;;;2.05;69.50;99812.97;5043878;28;19967;-49
2022/12/24 06:23:20;;;;;;;;;;;;;;;2.11;69.41;99817.28;5046947;28;19928;-50
2022/12/24 06:25:46;;;;;;;;;;;;;;;2.04;69.58;99821.59;5035329;28;19925;-54
2022/12/24 06:28:11;;;;;;;;;;;;;;;2.15;69.71;99830.25;5037638;28;20413;-53
2022/12/24 06:30:36;;;;;;;;;;;;;;;2.09;69.00;99830.25;5046285;28;19921;-53
2022/12/24 06:33:02;;;;;;;;;;;;;;;2.11;68.56;99825.94;5039393;28;19961;-54
2022/12/24 06:35:27;;;;;;;;;;;;;;;2.14;68.49;99827.69;5042049;28;19925;-54
2022/12/24 06:37:52;;;;;;;;;;;;;;;2.17;68.12;99832.88;5041972;28;19925;-54
2022/12/24 06:40:18;;;;;;;;;;;;;;;2.18;67.28;99842.38;5039573;28;19931;-55
2022/12/24 06:42:43;;;;;;;;;;;;;;;2.21;66.86;99851.03;5044764;28;20033;-54
2022/12/24 06:45:08;;;;;;;;;;;;;;;2.20;65.67;99851.91;5041066;28;19925;-52
2022/12/24 06:47:34;;;;;;;;;;;;;;;2.18;65.41;99853.59;5041326;28;19974;-55
2022/12/24 06:49:59;;;;;;;;;;;;;;;2.25;65.81;99857.09;5057307;28;19920;-55
2022/12/24 06:52:24;;;;;;;;;;;;;;;2.25;66.20;99856.25;5048092;28;19925;-52
2022/12/24 06:54:50;;;;;;;;;;;;;;;2.30;66.11;99867.47;5034322;28;21666;-55
2022/12/24 06:57:15;;;;;;;;;;;;;;;2.31;65.66;99857.09;5035924;28;19925;-55
2022/12/24 06:59:40;;;;;;;;;;;;;;;2.33;66.07;99870.94;5035738;28;19921;-53
2022/12/24 07:02:06;;;;;;;;;;;;;;;2.41;65.84;99873.56;5036261;28;19971;-53
2022/12/24 07:04:31;;;;;;;;;;;;;;;2.52;65.71;99882.25;5042781;28;19925;-53
2022/12/24 07:06:56;;;;;;;;;;;;;;;2.74;65.87;99877.97;5039918;28;19956;-54
2022/12/24 07:09:22;;;;;;;;;;;;;;;2.92;64.98;99885.81;5042707;28;20393;-56
2022/12/24 07:11:47;;;;;;;;;;;;;;;3.13;65.00;99884.94;5048280;28;20016;-56
2022/12/24 07:14:12;;;;;;;;;;;;;;;3.32;64.73;99903.16;5045645;28;20311;-51
2022/12/24 07:16:38;;;;;;;;;;;;;;;3.49;63.76;99896.22;5049332;28;19925;-54
2022/12/24 07:19:03;;;;;;;;;;;;;;;3.59;62.95;99902.25;5051221;28;19960;-50
2022/12/24 07:21:28;;;;;;;;;;;;;;;3.43;62.97;99896.19;5050304;28;20022;-50
2022/12/24 07:23:54;;;;;;;;;;;;;;;3.27;63.19;99903.16;5034833;28;19924;-51
2022/12/24 07:26:19;;;;;;;;;;;;;;;3.18;64.67;99909.19;5049668;28;19931;-52
2022/12/24 07:28:44;;;;;;;;;;;;;;;3.05;65.30;99911.78;5032816;28;19932;-50
2022/12/24 07:31:10;;;;;;;;;;;;;;;3.06;65.78;99910.91;5049573;28;19924;-51
2022/12/24 07:33:35;;;;;;;;;;;;;;;3.07;65.58;99920.41;5048773;28;19925;-50
2022/12/24 07:36:01;;;;;;;;;;;;;;;3.08;65.82;99916.97;5047570;28;19933;-50
2022/12/24 07:38:27;;;;;;;;;;;;;;;3.04;65.92;99921.28;5049927;28;20339;-51
2022/12/24 07:40:53;;;;;;;;;;;;;;;3.08;65.91;99930.81;5047740;28;19925;-50
2022/12/24 07:43:18;;;;;;;;;;;;;;;3.10;65.93;99939.47;5050112;28;19921;-50
2022/12/24 07:45:43;;;;;;;;;;;;;;;3.12;66.82;99937.75;5037733;28;19932;-50
2022/12/24 07:48:09;;;;;;;;;;;;;;;3.34;66.45;99938.63;5049018;28;19920;-53
2022/12/24 07:50:34;;;;;;;;;;;;;;;3.52;66.25;99937.78;5043494;28;20327;-54
2022/12/24 07:52:59;;;;;;;;;;;;;;;3.72;66.01;99942.09;5035535;28;20023;-52
2022/12/24 07:55:25;;;;;;;;;;;;;;;3.74;66.25;99948.16;5036920;28;19921;-51
2022/12/24 07:57:50;;;;;;;;;;;;;;;3.86;66.10;99946.38;5038461;28;19925;-52
2022/12/24 08:00:15;;;;;;;;;;;;;;;3.91;66.26;99943.78;5035220;28;20483;-53
2022/12/24 08:02:41;;;;;;;;;;;;;;;4.11;65.88;99944.63;5050800;28;19960;-53
2022/12/24 08:05:06;;;;;;;;;;;;;;;4.22;66.02;99944.59;5035512;28;19924;-53
2022/12/24 08:07:32;;;;;;;;;;;;;;;4.30;65.54;99949.78;5048474;28;19921;-54
2022/12/24 08:09:57;;;;;;;;;;;;;;;4.28;65.52;99941.13;5049181;28;19975;-54
2022/12/24 08:12:23;;;;;;;;;;;;;;;4.18;65.68;99951.53;5049450;28;19928;-53
2022/12/24 08:14:48;;;;;;;;;;;;;;;4.14;66.11;99949.81;5049263;28;20435;-52
2022/12/24 08:17:14;;;;;;;;;;;;;;;4.18;66.06;99954.13;5049840;28;19932;-55
2022/12/24 08:19:39;;;;;;;;;;;;;;;4.18;65.98;99961.06;5049359;28;19936;-51
2022/12/24 08:22:04;;;;;;;;;;;;;;;4.16;66.25;99962.81;5049111;28;19928;-54
2022/12/24 08:24:29;;;;;;;;;;;;;;;4.11;66.30;99959.34;5049188;28;19924;-52
2022/12/24 08:26:55;;;;;;;;;;;;;;;4.22;65.87;99967.13;5050238;28;19925;-53
2022/12/24 08:29:20;;;;;;;;;;;;;;;4.23;65.83;99967.16;5049788;28;19924;-57
2022/12/24 08:31:45;;;;;;;;;;;;;;;4.24;65.61;99968.00;5043548;28;19921;-54
2022/12/24 08:34:11;;;;;;;;;;;;;;;4.21;65.72;99976.66;5050093;28;19932;-54
2022/12/24 08:36:36;;;;;;;;;;;;;;;4.20;65.47;99986.22;5048432;28;19921;-50
2022/12/24 08:39:02;;;;;;;;;;;;;;;4.20;65.33;99986.22;5046885;28;19974;-52
2022/12/24 08:41:31;;;;;;;;;;;;;;;4.30;65.38;99988.78;5046146;28;19920;-50
2022/12/24 08:43:56;;;;;;;;;;;;;;;4.37;65.09;100001.78;5041917;28;20404;-54
2022/12/24 08:46:21;;;;;;;;;;;;;;;4.42;64.90;99996.56;5042921;28;20454;-53
2022/12/24 08:48:47;;;;;;;;;;;;;;;4.34;65.68;99996.56;5036760;28;19921;-53
2022/12/24 08:51:14;;;;;;;;;;;;;;;4.44;65.66;100000.91;5038493;28;19964;-51
2022/12/24 08:53:40;;;;;;;;;;;;;;;4.53;65.77;100002.59;5046815;28;20071;-51
2022/12/24 08:56:06;;;;;;;;;;;;;;;4.55;66.21;100003.47;5047061;28;19921;-54
2022/12/24 08:58:32;;;;;;;;;;;;;;;4.66;66.11;99999.06;5038592;28;19951;-56
2022/12/24 09:00:58;;;;;;;;;;;;;;;4.76;66.18;100006.88;5041425;28;19928;-49
2022/12/24 09:03:23;;;;;;;;;;;;;;;4.78;66.35;100010.31;5036049;28;19937;-50
2022/12/24 09:05:48;;;;;;;;;;;;;;;4.87;65.98;100012.91;5036633;28;20300;-50
2022/12/24 09:08:14;;;;;;;;;;;;;;;5.02;65.93;100014.53;5037857;28;19968;-49
2022/12/24 09:10:39;;;;;;;;;;;;;;;5.05;66.02;100015.41;5046585;28;20348;-51
2022/12/24 09:13:04;;;;;;;;;;;;;;;5.13;66.04;100015.38;5049245;28;19971;-50
2022/12/24 09:15:30;;;;;;;;;;;;;;;5.15;65.94;100019.69;5041585;28;20369;-50
2022/12/24 09:17:56;;;;;;;;;;;;;;;5.23;66.02;100014.44;5033073;28;19921;-52
2022/12/24 09:20:22;;;;;;;;;;;;;;;5.24;66.07;100010.09;5034402;28;19925;-51
2022/12/24 09:22:47;;;;;;;;;;;;;;;5.26;65.94;100011.81;5038648;28;20031;-54
2022/12/24 09:25:12;;;;;;;;;;;;;;;5.27;66.18;100013.56;5041167;28;20191;-50
2022/12/24 09:27:38;;;;;;;;;;;;;;;5.32;66.28;100019.59;5052242;28;20445;-50
2022/12/24 09:30:04;;;;;;;;;;;;;;;5.35;66.03;100029.16;5030233;28;19929;-53
2022/12/24 09:32:29;;;;;;;;;;;;;;;5.30;66.33;100030.88;5052384;28;19979;-50
2022/12/24 09:34:54;;;;;;;;;;;;;;;5.40;66.23;100040.41;5053091;28;20277;-54
2022/12/24 09:37:20;;;;;;;;;;;;;;;5.36;66.25;100036.94;5052032;28;19925;-49
2022/12/24 09:39:45;;;;;;;;;;;;;;;5.47;66.24;100036.03;5042531;28;19960;-52
2022/12/24 09:42:13;;;;;;;;;;;;;;;5.49;66.09;100032.50;5039828;28;19925;-53
2022/12/24 09:44:42;;;;;;;;;;;;;;;5.49;66.26;100047.28;5042687;28;20376;-51
2022/12/24 09:47:19;;;;;;;;;;;;;;;5.57;65.98;100040.28;5040189;28;19932;-50
2022/12/24 09:49:46;;;;;;;;;;;;;;;5.62;65.97;100047.19;5041118;28;19921;-50
2022/12/24 09:52:15;;;;;;;;;;;;;;;5.72;65.73;100048.00;5044035;28;20000;-51
2022/12/24 09:54:43;;;;;;;;;;;;;;;5.75;66.02;100060.16;5037500;28;19939;-53
2022/12/24 09:57:19;;;;;;;;;;;;;;;5.84;65.59;100062.69;5036400;28;20274;-50
2022/12/24 09:59:45;;;;;;;;;;;;;;;5.81;65.73;100062.72;5033713;28;19955;-53
2022/12/24 10:02:12;;;;;;;;;;;;;;;5.79;65.94;100061.88;5037469;28;20258;-55
2022/12/24 10:04:38;;;;;;;;;;;;;;;5.78;66.12;100060.97;5045186;28;19921;-53
2022/12/24 10:07:03;;;;;;;;;;;;;;;5.89;65.75;100059.16;5052360;28;19929;-50
2022/12/24 10:09:31;;;;;;;;;;;;;;;5.87;65.89;100070.50;5037126;28;19927;-52
2022/12/24 10:12:06;;;;;;;;;;;;;;;5.98;65.57;100079.13;5039833;28;19925;-50
2022/12/24 10:14:38;;;;;;;;;;;;;;;5.96;65.74;100069.59;5049077;28;20410;-55
2022/12/24 10:17:21;;;;;;;;;;;;;;;6.02;65.36;100070.38;5039090;28;19921;-54
2022/12/24 10:19:51;;;;;;;;;;;;;;;5.82;66.16;100070.50;5043070;28;19921;-52
2022/12/24 10:22:25;;;;;;;;;;;;;;;5.85;66.00;100072.25;5037853;28;19935;-53
2022/12/24 10:24:50;;;;;;;;;;;;;;;5.96;65.93;100077.41;5042544;28;19921;-50
2022/12/24 10:27:18;;;;;;;;;;;;;;;6.00;66.03;100072.16;5047626;28;20249;-52
2022/12/24 10:29:46;;;;;;;;;;;;;;;6.12;65.58;100073.81;5046488;28;20007;-54
2022/12/24 10:32:19;;;;;;;;;;;;;;;6.04;65.66;100078.22;5037893;28;19924;-51
2022/12/24 10:34:48;;;;;;;;;;;;;;;6.12;65.43;100077.28;5039138;28;20415;-54
2022/12/24 10:37:14;;;;;;;;;;;;;;;6.14;65.49;100085.97;5037898;28;19917;-53
2022/12/24 10:39:39;;;;;;;;;;;;;;;6.22;65.31;100083.25;5042090;28;19925;-51
2022/12/24 10:42:05;;;;;;;;;;;;;;;6.25;65.20;100092.81;5048134;28;19940;-53
2022/12/24 10:44:32;;;;;;;;;;;;;;;6.30;64.76;100104.94;5045290;28;19920;-50
2022/12/24 10:46:58;;;;;;;;;;;;;;;6.33;65.04;100101.44;5033149;28;20008;-52
2022/12/24 10:49:28;;;;;;;;;;;;;;;6.29;65.00;100104.97;5047098;28;20172;-52
2022/12/24 10:51:57;;;;;;;;;;;;;;;6.38;64.69;100104.88;5040633;28;19932;-50
2022/12/24 10:54:26;;;;;;;;;;;;;;;6.20;65.13;100100.69;5044646;28;19925;-53
2022/12/24 10:56:56;;;;;;;;;;;;;;;6.36;64.87;100101.44;5057746;28;19921;-53
2022/12/24 10:59:35;;;;;;;;;;;;;;;6.43;64.44;100103.09;5044791;28;19921;-52
2022/12/24 11:02:01;;;;;;;;;;;;;;;6.52;64.23;100109.97;5040579;28;19921;-52
2022/12/24 11:04:28;;;;;;;;;;;;;;;6.43;64.62;100108.31;5048884;28;20270;-55
2022/12/24 11:06:55;;;;;;;;;;;;;;;6.46;64.80;100108.28;5051470;28;20010;-51
2022/12/24 11:09:22;;;;;;;;;;;;;;;6.44;64.78;100104.84;5049652;28;20395;-55
2022/12/24 11:11:48;;;;;;;;;;;;;;;6.54;64.53;100111.72;5047042;28;19927;-50
2022/12/24 11:14:15;;;;;;;;;;;;;;;6.53;64.40;100109.97;5037872;28;20027;-54
2022/12/24 11:16:47;;;;;;;;;;;;;;;6.53;64.84;100115.19;5045957;28;19929;-53
2022/12/24 11:19:17;;;;;;;;;;;;;;;6.68;64.28;100113.31;5050597;28;19921;-52
2022/12/24 11:21:43;;;;;;;;;;;;;;;6.66;64.64;100108.97;5044162;28;19921;-55
2022/12/24 11:24:21;;;;;;;;;;;;;;;6.70;64.51;100122.84;5037087;28;19932;-54
2022/12/24 11:26:46;;;;;;;;;;;;;;;7.11;63.46;100119.81;5044820;28;19921;-51
2022/12/24 11:29:14;;;;;;;;;;;;;;;7.12;62.92;100131.97;5043474;28;20023;-51
2022/12/24 11:31:40;;;;;;;;;;;;;;;7.11;63.43;100139.84;5037870;28;19921;-53
2022/12/24 11:34:21;;;;;;;;;;;;;;;7.12;62.82;100137.19;5037837;28;20004;-55
2022/12/24 11:36:46;;;;;;;;;;;;;;;7.09;62.29;100131.13;5050273;28;20281;-52
2022/12/24 11:39:19;;;;;;;;;;;;;;;7.11;62.17;100148.53;5040107;28;19925;-54
2022/12/24 11:41:45;;;;;;;;;;;;;;;7.08;62.14;100151.19;5035941;28;19987;-56
2022/12/24 11:44:11;;;;;;;;;;;;;;;7.49;61.51;100148.97;5048615;28;19974;-54
2022/12/24 11:46:41;;;;;;;;;;;;;;;7.35;61.46;100154.38;5039181;28;19925;-54
2022/12/24 11:49:25;;;;;;;;;;;;;;;7.27;62.25;100151.84;5042030;28;19927;-52
2022/12/24 11:52:02;;;;;;;;;;;;;;;7.29;62.16;100157.03;5036458;28;19952;-55
2022/12/24 11:54:30;;;;;;;;;;;;;;;7.18;61.87;100158.91;5044438;28;20333;-51
2022/12/24 11:56:57;;;;;;;;;;;;;;;7.19;62.11;100165.88;5038019;28;19921;-52
2022/12/24 11:59:23;;;;;;;;;;;;;;;7.14;61.75;100166.81;5040189;28;19925;-52
2022/12/24 12:01:54;;;;;;;;;;;;;;;7.13;61.88;100170.28;5039352;28;20003;-55
2022/12/24 12:04:21;;;;;;;;;;;;;;;7.12;62.19;100181.63;5034377;28;19922;-51
2022/12/24 12:06:49;;;;;;;;;;;;;;;7.12;62.08;100184.22;5034076;28;20312;-52
2022/12/24 12:09:34;;;;;;;;;;;;;;;7.10;62.29;100183.41;5040575;28;20013;-53
2022/12/24 12:12:06;;;;;;;;;;;;;;;7.07;62.07;100180.81;5040386;28;20011;-53
2022/12/24 12:14:39;;;;;;;;;;;;;;;7.01;62.16;100187.84;5054191;28;19979;-54
2022/12/24 12:17:28;;;;;;;;;;;;;;;6.89;62.44;100184.47;5054085;28;19979;-55
2022/12/24 12:20:00;;;;;;;;;;;;;;;6.83;62.81;100181.91;5035269;28;19921;-52
2022/12/24 12:22:25;;;;;;;;;;;;;;;6.78;62.76;100188.94;5036282;28;19921;-52
2022/12/24 12:24:52;;;;;;;;;;;;;;;6.73;63.01;100192.47;5045403;28;19928;-51
2022/12/24 12:27:31;;;;;;;;;;;;;;;6.70;63.04;100189.88;5045416;28;19945;-50
2022/12/24 12:30:01;;;;;;;;;;;;;;;6.60;63.39;100194.31;5036164;28;19999;-50
2022/12/24 12:32:34;;;;;;;;;;;;;;;6.59;63.33;100197.81;5033731;28;19917;-52
2022/12/24 12:35:15;;;;;;;;;;;;;;;6.54;63.49;100200.47;5050009;28;20004;-51
2022/12/24 12:37:43;;;;;;;;;;;;;;;6.48;63.73;100200.50;5051885;28;19927;-52
2022/12/24 12:40:13;;;;;;;;;;;;;;;6.46;63.81;100207.47;5053469;28;19917;-50
2022/12/24 12:42:39;;;;;;;;;;;;;;;6.45;63.73;100205.72;5053551;28;20434;-51
2022/12/24 12:45:20;;;;;;;;;;;;;;;6.45;63.86;100215.31;5046987;28;19948;-55
2022/12/24 12:47:55;;;;;;;;;;;;;;;6.42;63.76;100224.03;5034287;28;19987;-55
2022/12/24 12:50:39;;;;;;;;;;;;;;;6.38;63.80;100219.69;5033929;28;20030;-58
2022/12/24 12:53:23;;;;;;;;;;;;;;;6.37;63.94;100218.84;5032388;28;20407;-55
2022/12/24 12:55:51;;;;;;;;;;;;;;;6.34;63.88;100218.88;5036762;28;20012;-52
2022/12/24 12:58:23;;;;;;;;;;;;;;;6.22;64.19;100226.75;5038113;28;19959;-53
2022/12/24 13:00:51;;;;;;;;;;;;;;;6.24;64.42;100225.03;5037249;28;19917;-55
2022/12/24 13:03:26;;;;;;;;;;;;;;;6.20;64.23;100243.31;5037637;28;19962;-56
2022/12/24 13:06:03;;;;;;;;;;;;;;;6.13;64.42;100242.47;5037993;28;19924;-53